Time;durP1;ratioP1;P1;durP2;ratioP2;P2;SDS_P1;SDS_P2;PMS_P1;PMS_P2;Temp;Humidity;BMP_temperature;BMP_pressure;BME280_temperature;BME280_humidity;BME280_pressure;Samples;Min_cycle;Max_cycle;Signal;HPM_P1;HPM_P2
2023/03/19 00:01:28;;;;;;;2.65;1.75;;;20.40;66.10;;;;;;4794948;29;94421;-80
2023/03/19 00:03:54;;;;;;;1.95;1.50;;;20.40;66.30;;;;;;4797196;29;92876;-80
2023/03/19 00:06:20;;;;;;;2.65;1.85;;;20.40;66.00;;;;;;4788192;29;92367;-80
2023/03/19 00:08:45;;;;;;;3.42;1.80;;;20.40;66.20;;;;;;4796477;29;93180;-80
2023/03/19 00:11:12;;;;;;;2.78;1.45;;;20.30;66.10;;;;;;4794692;29;93250;-80
2023/03/19 00:13:39;;;;;;;3.05;1.70;;;20.30;66.20;;;;;;4791188;29;91995;-80
2023/03/19 00:16:05;;;;;;;2.85;1.58;;;20.30;66.10;;;;;;4788187;29;91853;-80
2023/03/19 00:18:31;;;;;;;3.03;1.58;;;20.40;66.10;;;;;;4785031;29;94272;-81
2023/03/19 00:20:57;;;;;;;2.63;1.60;;;20.30;66.20;;;;;;4784229;29;92746;-81
2023/03/19 00:23:23;;;;;;;2.90;1.70;;;20.30;66.00;;;;;;4785356;29;93023;-81
2023/03/19 00:25:49;;;;;;;1.90;1.20;;;20.30;66.20;;;;;;4786933;29;92383;-81
2023/03/19 00:28:14;;;;;;;1.65;1.25;;;20.30;66.00;;;;;;4786948;29;93496;-81
2023/03/19 00:30:40;;;;;;;2.55;1.40;;;20.30;66.20;;;;;;4787281;29;93246;-81
2023/03/19 00:33:06;;;;;;;3.05;1.60;;;20.30;66.10;;;;;;4788065;29;92381;-82
2023/03/19 00:35:34;;;;;;;2.22;1.35;;;20.30;66.10;;;;;;4788107;29;92418;-81
2023/03/19 00:38:00;;;;;;;2.38;1.60;;;20.30;66.00;;;;;;4787786;29;93197;-81
2023/03/19 00:40:26;;;;;;;3.08;1.75;;;20.20;65.90;;;;;;4786543;29;92938;-81
2023/03/19 00:42:52;;;;;;;2.13;1.52;;;20.20;66.20;;;;;;4787995;29;92453;-81
2023/03/19 00:45:17;;;;;;;2.20;1.27;;;20.30;66.10;;;;;;4784531;29;92622;-81
2023/03/19 00:47:43;;;;;;;1.70;1.35;;;20.20;66.20;;;;;;4786133;29;93961;-81
2023/03/19 00:50:09;;;;;;;3.63;1.83;;;20.20;65.90;;;;;;4786651;29;94540;-81
2023/03/19 00:52:35;;;;;;;1.95;1.63;;;20.20;66.10;;;;;;4787769;29;93264;-82
2023/03/19 00:55:01;;;;;;;2.03;1.67;;;20.20;66.10;;;;;;4787428;29;92848;-81
2023/03/19 00:57:26;;;;;;;2.33;1.60;;;20.20;66.90;;;;;;4785252;29;93113;-81
2023/03/19 00:59:52;;;;;;;1.80;1.50;;;20.20;66.20;;;;;;4787092;29;92475;-81
2023/03/19 01:02:18;;;;;;;3.67;2.00;;;20.20;66.10;;;;;;4787691;29;92396;-81
2023/03/19 01:04:43;;;;;;;1.83;1.38;;;20.20;66.60;;;;;;4784794;29;91752;-81
2023/03/19 01:07:10;;;;;;;2.20;1.35;;;20.10;66.30;;;;;;4788155;29;93485;-81
2023/03/19 01:09:35;;;;;;;2.60;1.67;;;20.20;66.10;;;;;;4784969;29;92442;-81
2023/03/19 01:12:03;;;;;;;2.22;1.17;;;20.10;66.10;;;;;;4790086;29;93847;-81
2023/03/19 01:14:30;;;;;;;2.47;1.25;;;20.10;66.10;;;;;;4800172;29;92684;-81
2023/03/19 01:16:56;;;;;;;2.05;1.42;;;20.10;66.10;;;;;;4799403;29;93622;-80
2023/03/19 01:19:22;;;;;;;3.40;1.85;;;20.10;66.00;;;;;;4799565;29;92835;-81
2023/03/19 01:21:50;;;;;;;1.85;1.40;;;20.10;65.90;;;;;;4798659;29;92923;-81
2023/03/19 01:24:16;;;;;;;3.07;1.70;;;20.10;66.00;;;;;;4799657;29;92114;-81
2023/03/19 01:26:42;;;;;;;1.58;1.25;;;20.10;66.00;;;;;;4798989;29;93048;-81
2023/03/19 01:29:08;;;;;;;1.83;1.23;;;20.10;66.00;;;;;;4799371;29;93221;-81
2023/03/19 01:31:34;;;;;;;2.80;1.40;;;20.10;66.10;;;;;;4790267;29;92994;-81
2023/03/19 01:34:00;;;;;;;2.15;1.30;;;20.10;66.00;;;;;;4798439;29;92156;-81
2023/03/19 01:36:26;;;;;;;2.15;1.45;;;20.10;66.10;;;;;;4798647;29;94220;-81
2023/03/19 01:38:52;;;;;;;1.88;1.50;;;20.10;65.90;;;;;;4798440;29;93905;-81
2023/03/19 01:41:19;;;;;;;2.63;1.80;;;20.10;66.20;;;;;;4798981;29;92103;-80
2023/03/19 01:43:45;;;;;;;2.17;1.30;;;20.10;66.20;;;;;;4798157;29;92293;-81
2023/03/19 01:46:23;;;;;;;1.55;1.20;;;20.10;66.10;;;;;;4798246;29;93223;-81
2023/03/19 01:48:53;;;;;;;2.05;1.40;;;20.10;66.00;;;;;;4798137;29;92384;-81
2023/03/19 01:51:28;;;;;;;2.33;1.58;;;20.00;66.10;;;;;;4798533;29;92291;-81
2023/03/19 01:54:04;;;;;;;1.77;1.45;;;20.10;66.00;;;;;;4799340;29;91722;-81
2023/03/19 01:56:36;;;;;;;1.65;1.23;;;20.00;66.10;;;;;;4798099;29;92975;-81
2023/03/19 01:59:10;;;;;;;2.10;1.30;;;20.00;65.90;;;;;;4797990;29;92371;-82
2023/03/19 02:01:43;;;;;;;2.22;1.63;;;20.00;66.00;;;;;;4799689;29;93214;-81
2023/03/19 02:04:08;;;;;;;1.92;1.38;;;20.00;65.80;;;;;;4799690;29;92561;-81
2023/03/19 02:06:36;;;;;;;1.23;1.10;;;20.00;65.80;;;;;;4799191;29;93245;-81
2023/03/19 02:09:02;;;;;;;1.85;1.30;;;20.00;66.00;;;;;;4794199;29;97517;-81
2023/03/19 02:11:28;;;;;;;2.75;1.42;;;20.00;65.80;;;;;;4798475;29;92385;-80
2023/03/19 02:13:54;;;;;;;1.55;1.30;;;20.00;65.90;;;;;;4797650;29;92396;-81
2023/03/19 02:16:20;;;;;;;1.63;1.40;;;20.00;65.80;;;;;;4799097;29;93201;-81
2023/03/19 02:18:47;;;;;;;2.72;1.50;;;20.00;65.90;;;;;;4797712;29;93128;-81
2023/03/19 02:21:17;;;;;;;2.33;1.30;;;20.00;65.80;;;;;;4797380;29;92057;-81
2023/03/19 02:23:46;;;;;;;2.00;1.35;;;20.00;65.80;;;;;;4797430;29;92992;-81
2023/03/19 02:26:15;;;;;;;1.80;1.30;;;19.90;65.70;;;;;;4797564;29;94827;-81
2023/03/19 02:28:43;;;;;;;1.97;1.50;;;20.00;65.80;;;;;;4798949;29;94054;-81
2023/03/19 02:31:10;;;;;;;1.63;1.10;;;20.00;65.80;;;;;;4799243;29;92071;-80
2023/03/19 02:33:36;;;;;;;1.92;1.48;;;19.90;65.80;;;;;;4798623;29;92007;-80
2023/03/19 02:36:05;;;;;;;1.88;1.38;;;19.90;65.90;;;;;;4797685;29;92757;-81
2023/03/19 02:38:32;;;;;;;1.75;1.17;;;19.90;65.80;;;;;;4797985;29;92631;-81
2023/03/19 02:41:04;;;;;;;1.73;1.30;;;19.90;65.90;;;;;;4798436;29;92512;-81
2023/03/19 02:43:31;;;;;;;2.00;1.30;;;19.90;65.70;;;;;;4798968;29;91737;-81
2023/03/19 02:45:58;;;;;;;2.08;1.60;;;19.90;65.80;;;;;;4798462;29;94499;-81
2023/03/19 02:48:24;;;;;;;1.10;1.00;;;19.90;65.90;;;;;;4796997;29;92630;-81
2023/03/19 02:50:50;;;;;;;2.47;1.33;;;19.90;65.70;;;;;;4797815;29;93600;-81
2023/03/19 02:53:16;;;;;;;2.75;1.40;;;19.90;65.70;;;;;;4798875;29;92529;-81
2023/03/19 02:55:45;;;;;;;1.52;1.10;;;19.90;65.70;;;;;;4797542;29;92426;-81
2023/03/19 02:58:11;;;;;;;1.63;1.27;;;19.90;65.60;;;;;;4798763;29;92845;-81
2023/03/19 03:00:37;;;;;;;3.58;1.45;;;19.90;66.00;;;;;;4798138;29;92653;-81
2023/03/19 03:03:05;;;;;;;1.95;1.30;;;19.90;65.80;;;;;;4797199;29;92254;-81
2023/03/19 03:05:31;;;;;;;1.85;1.40;;;19.80;66.00;;;;;;4797223;29;93254;-81
2023/03/19 03:07:57;;;;;;;3.22;1.45;;;19.80;65.90;;;;;;4798046;29;93367;-81
2023/03/19 03:10:23;;;;;;;1.83;1.10;;;19.80;66.00;;;;;;4798084;29;92830;-81
2023/03/19 03:12:49;;;;;;;1.98;1.30;;;19.80;66.00;;;;;;4797754;29;92089;-80
2023/03/19 03:15:14;;;;;;;1.67;1.35;;;19.80;66.10;;;;;;4796713;29;94322;-80
2023/03/19 03:17:42;;;;;;;1.90;1.42;;;19.80;66.10;;;;;;4797560;29;94333;-80
2023/03/19 03:20:10;;;;;;;2.22;1.38;;;19.80;66.00;;;;;;4797080;29;92680;-81
2023/03/19 03:22:36;;;;;;;1.70;1.20;;;19.80;66.00;;;;;;4797227;29;92980;-81
2023/03/19 03:25:02;;;;;;;2.30;1.20;;;19.80;65.80;;;;;;4798206;29;93648;-80
2023/03/19 03:27:28;;;;;;;1.33;1.00;;;19.80;65.90;;;;;;4797710;29;93432;-81
2023/03/19 03:29:54;;;;;;;1.48;1.00;;;19.80;65.70;;;;;;4798091;29;92539;-80
2023/03/19 03:32:20;;;;;;;1.80;1.20;;;19.80;66.00;;;;;;4797308;29;91810;-81
2023/03/19 03:34:46;;;;;;;2.22;1.20;;;19.80;66.00;;;;;;4780783;29;93783;-80
2023/03/19 03:37:11;;;;;;;1.25;1.13;;;19.80;65.90;;;;;;4797566;29;92380;-80
2023/03/19 03:39:37;;;;;;;1.63;1.40;;;19.80;65.70;;;;;;4797238;29;93104;-80
2023/03/19 03:42:04;;;;;;;1.83;1.33;;;19.70;65.80;;;;;;4797022;29;92598;-81
2023/03/19 03:44:29;;;;;;;2.63;1.50;;;19.70;65.70;;;;;;4797563;29;93677;-80
2023/03/19 03:46:55;;;;;;;2.00;1.25;;;19.70;65.70;;;;;;4797872;29;93868;-80
2023/03/19 03:49:21;;;;;;;0.98;0.88;;;19.70;66.10;;;;;;4782517;29;92555;-81
2023/03/19 03:51:47;;;;;;;1.60;1.17;;;19.70;65.90;;;;;;4798570;29;92499;-81
2023/03/19 03:54:13;;;;;;;2.42;1.17;;;19.70;65.90;;;;;;4797267;29;92855;-81
2023/03/19 03:56:38;;;;;;;1.75;1.30;;;19.70;65.80;;;;;;4797358;29;93728;-81
2023/03/19 03:59:04;;;;;;;2.00;1.27;;;19.70;65.90;;;;;;4797014;29;92386;-81
2023/03/19 04:01:30;;;;;;;1.48;0.95;;;19.70;65.70;;;;;;4797544;29;92161;-81
2023/03/19 04:03:56;;;;;;;3.63;1.45;;;19.70;65.60;;;;;;4797188;29;93896;-81
2023/03/19 04:06:23;;;;;;;1.30;1.13;;;19.70;65.70;;;;;;4797068;29;94202;-80
2023/03/19 04:08:49;;;;;;;2.25;1.27;;;19.70;65.70;;;;;;4796187;29;93354;-80
2023/03/19 04:11:15;;;;;;;1.55;1.20;;;19.60;65.50;;;;;;4796672;29;91997;-81
2023/03/19 04:13:41;;;;;;;1.98;1.13;;;19.70;65.70;;;;;;4796732;29;92926;-80
2023/03/19 04:16:08;;;;;;;2.92;1.30;;;19.70;65.70;;;;;;4798542;29;93121;-81
2023/03/19 04:18:35;;;;;;;1.25;0.90;;;19.70;65.60;;;;;;4798001;29;93035;-81
2023/03/19 04:21:02;;;;;;;2.22;1.17;;;19.60;65.70;;;;;;4797664;29;91524;-81
2023/03/19 04:23:28;;;;;;;1.35;1.02;;;19.60;65.60;;;;;;4796283;29;93596;-80
2023/03/19 04:26:01;;;;;;;1.52;1.10;;;19.60;65.90;;;;;;4779935;29;96222;-80
2023/03/19 04:28:27;;;;;;;2.17;1.30;;;19.60;65.70;;;;;;4797705;29;93389;-80
2023/03/19 04:31:01;;;;;;;1.77;1.00;;;19.60;65.80;;;;;;4796718;29;92123;-81
2023/03/19 04:33:28;;;;;;;1.65;1.08;;;19.60;65.60;;;;;;4796370;29;92867;-80
2023/03/19 04:35:55;;;;;;;2.00;1.15;;;19.60;65.70;;;;;;4796092;29;92815;-80
2023/03/19 04:38:21;;;;;;;1.33;1.20;;;19.60;65.60;;;;;;4797415;29;92439;-81
2023/03/19 04:40:47;;;;;;;1.65;1.20;;;19.60;65.70;;;;;;4796691;29;92501;-80
2023/03/19 04:43:14;;;;;;;1.98;1.10;;;19.60;65.60;;;;;;4796598;29;92730;-80
2023/03/19 04:45:40;;;;;;;1.92;1.50;;;19.60;65.70;;;;;;4796953;29;92542;-80
2023/03/19 04:48:06;;;;;;;1.58;1.30;;;19.60;65.70;;;;;;4798809;29;91982;-81
2023/03/19 04:50:32;;;;;;;1.40;1.27;;;19.60;65.50;;;;;;4800821;29;92464;-81
2023/03/19 04:52:57;;;;;;;1.65;1.08;;;19.60;65.60;;;;;;4784481;29;94529;-81
2023/03/19 04:55:23;;;;;;;1.90;1.42;;;19.60;65.60;;;;;;4802868;29;93889;-81
2023/03/19 04:57:48;;;;;;;2.88;1.45;;;19.60;65.70;;;;;;4800991;29;92442;-80
2023/03/19 05:00:15;;;;;;;1.85;1.33;;;19.60;66.00;;;;;;4801917;29;96733;-82
2023/03/19 05:02:41;;;;;;;3.28;1.45;;;19.60;66.50;;;;;;4800566;29;92610;-81
2023/03/19 05:05:09;;;;;;;1.50;1.30;;;19.60;66.60;;;;;;4800805;29;93449;-81
2023/03/19 05:07:35;;;;;;;2.30;1.23;;;19.60;66.80;;;;;;4802375;29;91969;-81
2023/03/19 05:10:01;;;;;;;1.90;1.17;;;19.60;66.80;;;;;;4799850;29;91956;-81
2023/03/19 05:12:27;;;;;;;2.38;1.50;;;19.60;66.90;;;;;;4791871;29;95016;-82
2023/03/19 05:14:53;;;;;;;2.13;1.25;;;19.50;66.80;;;;;;4793399;29;94738;-81
2023/03/19 05:17:18;;;;;;;1.83;1.27;;;19.50;67.60;;;;;;4791793;29;93819;-81
2023/03/19 05:19:44;;;;;;;1.65;1.20;;;19.50;66.90;;;;;;4791527;29;92642;-80
2023/03/19 05:22:10;;;;;;;1.48;1.13;;;19.50;67.00;;;;;;4787573;29;92685;-80
2023/03/19 05:24:35;;;;;;;1.83;1.40;;;19.60;66.10;;;;;;4789784;29;93241;-80
2023/03/19 05:27:01;;;;;;;3.05;1.55;;;19.50;66.10;;;;;;4790632;29;92784;-81
2023/03/19 05:29:27;;;;;;;2.85;2.00;;;19.50;66.00;;;;;;4792501;29;92110;-81
2023/03/19 05:31:52;;;;;;;5.55;2.30;;;19.50;66.20;;;;;;4792684;29;94990;-81
2023/03/19 05:34:18;;;;;;;3.22;2.08;;;19.50;66.50;;;;;;4793880;29;93055;-82
2023/03/19 05:36:44;;;;;;;3.90;2.17;;;19.50;66.90;;;;;;4790874;29;92841;-80
2023/03/19 05:39:09;;;;;;;4.20;1.70;;;19.60;66.20;;;;;;4788864;29;92420;-81
2023/03/19 05:41:35;;;;;;;3.45;2.05;;;19.50;66.60;;;;;;4787988;29;93704;-81
2023/03/19 05:44:01;;;;;;;3.63;1.85;;;19.60;66.40;;;;;;4788993;29;92904;-80
2023/03/19 05:46:26;;;;;;;3.78;1.75;;;19.60;66.00;;;;;;4791235;29;92556;-81
2023/03/19 05:48:52;;;;;;;3.72;1.90;;;19.60;65.50;;;;;;4789433;29;92601;-81
2023/03/19 05:51:18;;;;;;;7.45;2.22;;;19.60;65.90;;;;;;4789031;29;93499;-80
2023/03/19 05:53:43;;;;;;;3.42;1.52;;;19.70;65.70;;;;;;4786981;29;92928;-80
2023/03/19 05:56:10;;;;;;;5.20;2.00;;;19.70;65.60;;;;;;4791005;29;94721;-81
2023/03/19 05:58:36;;;;;;;3.60;1.83;;;19.70;65.40;;;;;;4789981;29;91842;-81
2023/03/19 06:01:02;;;;;;;1.80;1.40;;;19.80;65.00;;;;;;4789450;29;93228;-81
2023/03/19 06:03:28;;;;;;;4.35;1.85;;;19.90;65.10;;;;;;4788238;29;93030;-80
2023/03/19 06:05:53;;;;;;;3.50;1.70;;;19.80;65.20;;;;;;4790285;29;93053;-81
2023/03/19 06:08:20;;;;;;;4.18;1.60;;;19.80;65.10;;;;;;4789379;29;92674;-81
2023/03/19 06:10:46;;;;;;;3.25;1.73;;;19.80;65.40;;;;;;4788044;29;96890;-80
2023/03/19 06:13:12;;;;;;;3.97;1.70;;;19.80;65.30;;;;;;4799319;29;92881;-80
2023/03/19 06:15:38;;;;;;;6.38;1.67;;;19.80;65.40;;;;;;4782687;29;92688;-80
2023/03/19 06:18:03;;;;;;;4.55;1.83;;;19.70;65.50;;;;;;4797171;29;92243;-81
2023/03/19 06:20:29;;;;;;;2.33;1.50;;;19.70;65.40;;;;;;4796951;29;92258;-81
2023/03/19 06:22:55;;;;;;;2.28;1.30;;;19.70;65.40;;;;;;4800390;29;93429;-81
2023/03/19 06:25:21;;;;;;;3.13;1.65;;;19.70;65.40;;;;;;4801382;29;92972;-80
2023/03/19 06:27:46;;;;;;;4.00;1.60;;;19.70;65.50;;;;;;4800292;29;91988;-80
2023/03/19 06:30:13;;;;;;;2.65;1.67;;;19.70;65.40;;;;;;4799855;29;94478;-80
2023/03/19 06:32:39;;;;;;;2.80;1.88;;;19.70;65.40;;;;;;4798701;29;93722;-80
2023/03/19 06:35:05;;;;;;;3.97;1.50;;;19.70;65.40;;;;;;4799236;29;92954;-80
2023/03/19 06:37:32;;;;;;;3.22;1.30;;;19.70;65.00;;;;;;4799534;29;92329;-80
2023/03/19 06:39:57;;;;;;;3.85;1.75;;;19.70;65.00;;;;;;4798020;29;93090;-80
2023/03/19 06:42:23;;;;;;;4.30;2.03;;;19.70;65.10;;;;;;4797884;29;92860;-80
2023/03/19 06:44:49;;;;;;;6.30;2.03;;;19.60;65.20;;;;;;4797000;29;92482;-81
2023/03/19 06:47:14;;;;;;;46.55;8.00;;;19.60;65.20;;;;;;4797986;29;91523;-81
2023/03/19 06:49:40;;;;;;;25.45;5.10;;;19.60;65.00;;;;;;4799868;29;95073;-81
2023/03/19 06:52:13;;;;;;;16.52;4.10;;;19.60;65.00;;;;;;4798588;29;96389;-81
2023/03/19 06:54:39;;;;;;;16.02;4.55;;;19.70;64.80;;;;;;4798899;29;93592;-81
2023/03/19 06:57:05;;;;;;;24.90;6.25;;;19.70;64.70;;;;;;4798947;29;92150;-81
2023/03/19 06:59:30;;;;;;;17.52;5.43;;;19.80;64.80;;;;;;4799703;29;94133;-80
2023/03/19 07:01:56;;;;;;;23.05;5.07;;;19.90;64.70;;;;;;4799992;29;92799;-81
2023/03/19 07:04:22;;;;;;;21.52;5.20;;;19.90;64.60;;;;;;4800514;29;92131;-80
2023/03/19 07:06:47;;;;;;;22.58;5.60;;;20.00;64.80;;;;;;4790566;29;92635;-81
2023/03/19 07:09:13;;;;;;;35.95;9.60;;;20.00;64.60;;;;;;4796792;29;94723;-81
2023/03/19 07:11:39;;;;;;;36.40;8.70;;;20.00;64.50;;;;;;4793849;29;93005;-80
2023/03/19 07:14:04;;;;;;;32.15;9.32;;;20.00;64.40;;;;;;4787926;29;92881;-80
2023/03/19 07:16:30;;;;;;;36.45;8.80;;;20.00;64.60;;;;;;4789238;29;92708;-81
2023/03/19 07:18:56;;;;;;;34.28;9.00;;;20.10;64.60;;;;;;4787407;29;95839;-80
2023/03/19 07:21:22;;;;;;;34.08;8.73;;;20.00;64.50;;;;;;4781921;29;93812;-80
2023/03/19 07:23:49;;;;;;;30.45;7.72;;;20.10;63.80;;;;;;4782743;29;92426;-81
2023/03/19 07:26:16;;;;;;;28.95;7.57;;;20.10;63.90;;;;;;4778279;29;92404;-81
2023/03/19 07:28:41;;;;;;;20.95;6.82;;;20.20;64.00;;;;;;4774029;29;95680;-80
2023/03/19 07:31:07;;;;;;;33.42;8.45;;;20.10;63.60;;;;;;4789245;29;93841;-81
2023/03/19 07:33:33;;;;;;;29.73;8.25;;;20.20;63.70;;;;;;4791550;29;92231;-82
2023/03/19 07:35:58;;;;;;;29.23;7.40;;;20.20;64.20;;;;;;4789846;29;91482;-82
2023/03/19 07:38:24;;;;;;;30.25;9.38;;;20.30;63.80;;;;;;4789830;29;94223;-80
2023/03/19 07:40:50;;;;;;;30.83;8.93;;;20.30;63.70;;;;;;4770697;29;95603;-81
2023/03/19 07:43:16;;;;;;;39.42;8.85;;;20.40;63.50;;;;;;4786807;29;93226;-81
2023/03/19 07:45:41;;;;;;;25.60;7.43;;;20.40;63.50;;;;;;4787076;29;92145;-81
2023/03/19 07:48:07;;;;;;;27.73;8.45;;;20.40;63.90;;;;;;4780780;29;92609;-80
2023/03/19 07:50:33;;;;;;;29.85;7.85;;;20.40;63.80;;;;;;4788731;29;92645;-81
2023/03/19 07:52:59;;;;;;;33.70;8.60;;;20.40;64.10;;;;;;4777895;29;92567;-80
2023/03/19 07:55:25;;;;;;;20.23;7.57;;;20.40;64.10;;;;;;4785570;29;92709;-81
2023/03/19 07:57:50;;;;;;;25.75;7.85;;;20.30;64.20;;;;;;4786185;29;93780;-80
2023/03/19 08:00:17;;;;;;;21.10;8.10;;;20.30;64.40;;;;;;4788126;29;93038;-81
2023/03/19 08:02:43;;;;;;;26.83;7.90;;;20.30;64.20;;;;;;4787012;29;93739;-79
2023/03/19 08:05:09;;;;;;;26.73;7.90;;;20.30;64.50;;;;;;4787121;29;92128;-78
2023/03/19 08:07:36;;;;;;;22.58;8.40;;;20.30;65.00;;;;;;4788097;29;95253;-79
2023/03/19 08:10:03;;;;;;;26.67;8.80;;;20.40;65.60;;;;;;4787025;29;94194;-79
2023/03/19 08:12:30;;;;;;;26.88;9.15;;;20.30;66.20;;;;;;4792952;29;92648;-79
2023/03/19 08:14:56;;;;;;;27.25;8.05;;;20.30;66.70;;;;;;4796679;29;92435;-80
2023/03/19 08:17:22;;;;;;;30.45;9.15;;;20.30;67.20;;;;;;4796684;29;93262;-80
2023/03/19 08:19:47;;;;;;;27.10;8.68;;;20.40;66.40;;;;;;4796864;29;93146;-80
2023/03/19 08:22:13;;;;;;;30.83;9.15;;;20.40;67.20;;;;;;4779923;29;92714;-80
2023/03/19 08:24:39;;;;;;;31.05;9.45;;;20.50;67.10;;;;;;4796865;29;91667;-80
2023/03/19 08:27:05;;;;;;;25.05;9.02;;;20.50;67.10;;;;;;4797366;29;93624;-81
2023/03/19 08:29:31;;;;;;;25.73;8.63;;;20.50;66.90;;;;;;4785358;29;96214;-81
2023/03/19 08:31:57;;;;;;;28.92;9.35;;;20.50;67.40;;;;;;4798036;29;93759;-81
2023/03/19 08:34:23;;;;;;;30.88;8.85;;;20.50;67.40;;;;;;4797722;29;91973;-81
2023/03/19 08:36:49;;;;;;;26.15;8.18;;;20.50;67.40;;;;;;4798936;29;92668;-80
2023/03/19 08:39:15;;;;;;;23.88;9.27;;;20.50;67.30;;;;;;4797926;29;92881;-81
2023/03/19 08:41:41;;;;;;;23.48;8.15;;;20.50;67.50;;;;;;4797991;29;92474;-80
2023/03/19 08:44:07;;;;;;;27.38;8.98;;;20.50;67.90;;;;;;4776776;29;92181;-80
2023/03/19 08:46:41;;;;;;;25.73;9.10;;;20.50;67.60;;;;;;4777080;29;93375;-81
2023/03/19 08:49:07;;;;;;;28.13;8.85;;;20.50;67.50;;;;;;4766421;29;97225;-81
2023/03/19 08:51:32;;;;;;;21.55;8.82;;;20.50;67.40;;;;;;4779421;29;92170;-82
2023/03/19 08:54:03;;;;;;;28.95;9.35;;;20.50;68.20;;;;;;4779598;29;92247;-81
2023/03/19 08:56:29;;;;;;;26.35;8.15;;;20.50;67.60;;;;;;4758678;29;96021;-81
2023/03/19 08:58:56;;;;;;;28.63;7.43;;;20.50;67.50;;;;;;4761391;29;93743;-82
2023/03/19 09:01:22;;;;;;;23.13;7.43;;;20.50;67.40;;;;;;4762421;29;92074;-82
2023/03/19 09:03:48;;;;;;;21.08;7.25;;;20.30;67.20;;;;;;4760776;29;92160;-82
2023/03/19 09:06:14;;;;;;;22.13;7.55;;;20.30;67.00;;;;;;4761871;29;93107;-82
2023/03/19 09:08:43;;;;;;;21.80;8.23;;;20.30;66.80;;;;;;4761078;29;93451;-82
2023/03/19 09:11:13;;;;;;;20.50;6.93;;;20.20;66.80;;;;;;4761595;29;92335;-82
2023/03/19 09:13:39;;;;;;;27.33;7.07;;;20.20;67.00;;;;;;4759703;29;92133;-79
2023/03/19 09:16:05;;;;;;;23.65;7.78;;;20.20;66.00;;;;;;4759583;29;93604;-81
2023/03/19 09:18:32;;;;;;;23.80;7.70;;;20.20;66.40;;;;;;4761119;29;93340;-81
2023/03/19 09:20:58;;;;;;;22.73;7.30;;;20.20;66.50;;;;;;4761213;29;93241;-81
2023/03/19 09:23:24;;;;;;;18.23;7.15;;;20.20;67.00;;;;;;4759132;29;92430;-80
2023/03/19 09:25:50;;;;;;;17.52;6.95;;;20.20;67.70;;;;;;4760163;29;93326;-80
2023/03/19 09:28:16;;;;;;;21.00;7.65;;;20.30;67.80;;;;;;4793042;29;93051;-88
2023/03/19 09:30:45;;;;;;;17.80;6.95;;;20.40;71.90;;;;;;4803310;29;92458;-88
2023/03/19 09:33:11;;;;;;;25.50;6.72;;;20.40;68.10;;;;;;4802422;29;91886;-87
2023/03/19 09:35:38;;;;;;;19.98;6.95;;;20.40;66.80;;;;;;4788187;29;95970;-88
2023/03/19 09:38:15;;;;;;;15.60;6.53;;;20.40;67.10;;;;;;4788555;29;97069;-87
2023/03/19 09:41:02;;;;;;;17.17;6.10;;;20.40;67.50;;;;;;4805660;29;92547;-87
2023/03/19 09:44:01;;;;;;;20.85;8.40;;;20.50;68.10;;;;;;4805527;29;92538;-88
2023/03/19 09:46:53;;;;;;;22.80;8.40;;;20.50;68.40;;;;;;4801492;29;102053;-89
2023/03/19 09:49:28;;;;;;;19.05;6.57;;;20.60;68.50;;;;;;4795177;29;101323;-87
2023/03/19 09:52:25;;;;;;;18.08;7.35;;;20.70;66.20;;;;;;4786971;29;92106;-88
2023/03/19 09:55:25;;;;;;;22.65;9.18;;;20.70;67.20;;;;;;4805556;29;92450;-89
2023/03/19 09:57:54;;;;;;;25.23;9.02;;;20.70;67.70;;;;;;4766071;29;93558;-90
2023/03/19 10:00:26;;;;;;;23.42;9.18;;;20.70;68.50;;;;;;4749815;29;97043;-88
2023/03/19 10:02:57;;;;;;;24.17;9.73;;;20.80;68.90;;;;;;4751806;29;92383;-89
2023/03/19 10:08:56;;;;;;;15.68;5.70;;;20.80;68.70;;;;;;4764189;29;93117;-88
2023/03/19 10:11:25;;;;;;;15.27;6.82;;;20.90;63.30;;;;;;4751570;29;96440;-87
2023/03/19 10:14:15;;;;;;;14.83;6.33;;;20.90;65.90;;;;;;4751191;29;93276;-89
2023/03/19 10:16:44;;;;;;;11.88;5.35;;;20.90;64.00;;;;;;4766272;29;92724;-89
2023/03/19 10:19:15;;;;;;;15.30;6.10;;;21.10;62.60;;;;;;4751333;29;96546;-89
2023/03/19 10:21:47;;;;;;;13.27;5.65;;;21.10;61.60;;;;;;4750791;29;96542;-91
2023/03/19 10:24:32;;;;;;;15.35;7.22;;;21.20;62.70;;;;;;4750971;29;92761;-86
2023/03/19 10:27:01;;;;;;;14.07;6.65;;;21.20;64.10;;;;;;4751561;29;92757;-93
2023/03/19 10:29:48;;;;;;;12.15;6.35;;;21.10;63.30;;;;;;4730952;29;94995;-92
2023/03/19 10:32:33;;;;;;;20.13;8.18;;;21.10;64.00;;;;;;4717669;29;96119;-91
2023/03/19 10:35:04;;;;;;;13.93;8.05;;;21.00;63.80;;;;;;4733002;29;92207;-92
2023/03/19 10:37:30;;;;;;;17.45;8.30;;;20.80;63.80;;;;;;4767799;29;92657;-89
2023/03/19 10:39:58;;;;;;;17.70;9.93;;;20.80;71.90;;;;;;4750784;29;95999;-91
2023/03/19 10:42:41;;;;;;;21.23;10.57;;;20.70;70.80;;;;;;4751872;29;96870;-93
2023/03/19 10:45:31;;;;;;;17.08;9.55;;;20.60;73.50;;;;;;4768441;29;92183;-92
2023/03/19 10:47:59;;;;;;;21.13;9.57;;;20.50;74.00;;;;;;4769061;29;92518;-94
2023/03/19 10:50:27;;;;;;;26.05;11.38;;;20.50;76.50;;;;;;4761292;29;98322;-87
2023/03/19 10:53:05;;;;;;;24.50;9.98;;;20.40;71.90;;;;;;4766056;29;96113;-93
2023/03/19 10:55:31;;;;;;;23.33;10.05;;;20.60;68.70;;;;;;4767795;29;92080;-93
2023/03/19 10:58:17;;;;;;;18.98;9.10;;;20.60;68.40;;;;;;4741460;29;91744;-95
2023/03/19 11:00:46;;;;;;;22.25;8.88;;;20.60;68.00;;;;;;4769753;29;95848;-94
2023/03/19 11:10:18;;;;;;;18.35;9.50;;;20.70;68.00;;;;;;4804651;29;91920;-92
2023/03/19 11:12:53;;;;;;;19.70;9.07;;;20.70;68.20;;;;;;4802556;29;96541;-91
2023/03/19 11:15:28;;;;;;;21.48;9.98;;;20.70;68.80;;;;;;4803646;29;96769;-92
2023/03/19 11:17:59;;;;;;;23.80;10.25;;;20.70;69.00;;;;;;4802004;29;92068;-92
2023/03/19 11:20:35;;;;;;;18.50;9.55;;;20.70;69.30;;;;;;4789843;29;92102;-95
2023/03/19 11:23:08;;;;;;;24.17;9.68;;;20.70;69.50;;;;;;4797676;29;92162;-91
2023/03/19 11:25:52;;;;;;;17.58;9.90;;;20.70;69.20;;;;;;4806417;29;95278;-92
2023/03/19 11:28:25;;;;;;;17.17;9.32;;;20.70;69.00;;;;;;4802101;29;92075;-91
2023/03/19 11:31:19;;;;;;;19.23;8.73;;;20.80;69.10;;;;;;4801311;29;92694;-93
2023/03/19 11:34:06;;;;;;;23.50;10.40;;;20.70;69.40;;;;;;4802856;29;94415;-88
2023/03/19 11:37:07;;;;;;;21.75;10.05;;;20.70;69.10;;;;;;4792867;29;97764;-92
2023/03/19 11:43:35;;;;;;;22.75;10.60;;;20.70;68.70;;;;;;4808136;29;92009;-95
2023/03/19 11:46:32;;;;;;;24.23;9.80;;;20.80;68.60;;;;;;4794785;29;95119;-96
2023/03/19 11:49:20;;;;;;;15.68;9.00;;;20.90;67.80;;;;;;4785186;29;95755;-91
2023/03/19 11:52:10;;;;;;;17.73;8.73;;;21.00;67.90;;;;;;4779108;29;93085;-90
2023/03/19 11:55:01;;;;;;;17.75;8.60;;;21.20;67.40;;;;;;4774822;29;91370;-90
2023/03/19 11:57:45;;;;;;;18.50;8.93;;;21.20;67.30;;;;;;4786549;29;93742;-93
2023/03/19 12:00:26;;;;;;;14.57;7.57;;;21.30;66.70;;;;;;4782839;29;96392;-95
2023/03/19 12:03:23;;;;;;;15.88;8.70;;;21.30;66.80;;;;;;4782449;29;93485;-95
2023/03/19 12:06:02;;;;;;;23.25;8.48;;;21.30;66.60;;;;;;4783321;29;92297;-94
2023/03/19 12:08:56;;;;;;;16.17;8.38;;;21.40;66.40;;;;;;4773578;29;95351;-94
2023/03/19 12:11:36;;;;;;;19.17;8.48;;;21.30;66.50;;;;;;4780311;29;96411;-93
2023/03/19 12:14:35;;;;;;;22.30;9.68;;;21.30;66.50;;;;;;4765263;29;92005;-95
2023/03/19 12:17:42;;;;;;;16.40;8.63;;;21.30;66.60;;;;;;4768162;29;91546;-94
2023/03/19 12:20:33;;;;;;;17.83;8.68;;;21.30;66.50;;;;;;4722638;29;93979;-93
2023/03/19 12:23:09;;;;;;;16.52;8.05;;;21.30;66.60;;;;;;4734681;29;95712;-94
2023/03/19 12:26:04;;;;;;;16.50;8.27;;;21.20;66.70;;;;;;4731454;29;91632;-92
2023/03/19 12:28:40;;;;;;;21.00;8.52;;;21.20;66.70;;;;;;4694286;29;93303;-94
2023/03/19 12:31:18;;;;;;;15.55;7.82;;;21.20;67.00;;;;;;4694912;29;100685;-93
2023/03/19 12:34:16;;;;;;;17.83;8.15;;;21.20;66.90;;;;;;4712387;29;95205;-94
2023/03/19 12:36:54;;;;;;;16.65;7.35;;;21.20;66.70;;;;;;4678290;30;92303;-93
2023/03/19 12:39:26;;;;;;;17.80;8.30;;;21.20;66.80;;;;;;4650332;30;92474;-94
2023/03/19 12:41:57;;;;;;;17.35;7.72;;;21.20;66.80;;;;;;4653137;30;94936;-96
2023/03/19 12:44:33;;;;;;;15.25;7.63;;;21.10;66.50;;;;;;4634979;30;96272;-94
2023/03/19 12:47:04;;;;;;;13.63;7.57;;;21.20;66.50;;;;;;4639264;30;92171;-94
2023/03/19 12:50:03;;;;;;;16.50;7.85;;;21.20;66.10;;;;;;4638675;30;91976;-92
2023/03/19 12:52:52;;;;;;;17.45;7.80;;;21.30;65.80;;;;;;4575123;30;100379;-93
2023/03/19 12:55:41;;;;;;;13.27;7.40;;;21.30;65.40;;;;;;4572462;30;99215;-95
2023/03/19 12:58:48;;;;;;;16.55;7.55;;;21.30;65.40;;;;;;4606425;30;93466;-94
2023/03/19 13:01:36;;;;;;;;;;;;;;;;;;;;;
2023/03/19 13:04:29;;;;;;;13.20;7.18;;;21.30;65.40;;;;;;4641940;30;94795;-93
2023/03/19 13:07:14;;;;;;;12.85;7.40;;;21.40;65.50;;;;;;4605679;30;94033;-91
2023/03/19 13:09:58;;;;;;;11.32;6.72;;;21.40;65.50;;;;;;4597012;30;92476;-92
2023/03/19 13:12:33;;;;;;;14.45;7.60;;;21.30;65.40;;;;;;4642813;30;92220;-93